Time;durP1;ratioP1;P1;durP2;ratioP2;P2;SDS_P1;SDS_P2;PMS_P1;PMS_P2;Temp;Humidity;BMP_temperature;BMP_pressure;BME280_temperature;BME280_humidity;BME280_pressure;Samples;Min_cycle;Max_cycle;Signal;HPM_P1;HPM_P2
2022/03/02 00:01:48;;;;;;;43.30;21.50;;;5.40;95.30;;;;;;5049591;28;20076;-67
2022/03/02 00:04:14;;;;;;;40.47;21.60;;;5.30;95.30;;;;;;5062637;28;20033;-67
2022/03/02 00:06:39;;;;;;;43.28;23.20;;;5.30;95.40;;;;;;5053847;28;20035;-67
2022/03/02 00:09:05;;;;;;;43.17;22.73;;;5.40;95.40;;;;;;5053044;28;20052;-67
2022/03/02 00:11:31;;;;;;;40.50;21.60;;;5.30;95.40;;;;;;5068749;28;20040;-67
2022/03/02 00:13:58;;;;;;;42.25;21.95;;;5.40;95.40;;;;;;5038476;28;20084;-67
2022/03/02 00:16:24;;;;;;;45.53;22.08;;;5.40;95.30;;;;;;5052539;28;20045;-67
2022/03/02 00:18:50;;;;;;;47.92;22.50;;;5.40;95.50;;;;;;5051880;28;20056;-67
2022/03/02 00:21:16;;;;;;;43.83;22.75;;;5.40;95.40;;;;;;5062181;28;20045;-67
2022/03/02 00:23:42;;;;;;;41.20;22.30;;;5.40;95.40;;;;;;5050748;28;20075;-67
2022/03/02 00:26:08;;;;;;;42.17;21.95;;;5.40;95.50;;;;;;5048817;28;20040;-67
2022/03/02 00:28:33;;;;;;;42.10;21.65;;;5.40;95.40;;;;;;5031386;28;20058;-67
2022/03/02 00:30:59;;;;;;;45.22;21.92;;;5.40;95.40;;;;;;5061627;28;20039;-67
2022/03/02 00:33:24;;;;;;;44.63;21.70;;;5.30;95.60;;;;;;5054442;28;20242;-67
2022/03/02 00:35:50;;;;;;;42.10;21.77;;;5.30;95.60;;;;;;5060068;28;20112;-67
2022/03/02 00:38:16;;;;;;;43.72;22.63;;;5.20;95.60;;;;;;5059020;28;20044;-67
2022/03/02 00:40:42;;;;;;;50.03;23.92;;;5.20;95.70;;;;;;5064889;28;20040;-67
2022/03/02 00:43:08;;;;;;;46.00;22.83;;;5.20;95.80;;;;;;5069080;28;20060;-67
2022/03/02 00:45:35;;;;;;;46.28;21.48;;;5.20;96.00;;;;;;5052629;28;20037;-66
2022/03/02 00:48:02;;;;;;;41.63;22.45;;;5.20;96.00;;;;;;5061983;28;20032;-67
2022/03/02 00:50:29;;;;;;;43.60;22.88;;;5.20;96.20;;;;;;5055558;28;20120;-67
2022/03/02 00:52:55;;;;;;;42.28;22.85;;;5.10;96.00;;;;;;5049991;28;20582;-67
2022/03/02 00:55:21;;;;;;;40.85;22.20;;;5.10;96.00;;;;;;5051327;28;20041;-67
2022/03/02 00:57:47;;;;;;;43.25;21.55;;;5.10;96.00;;;;;;5059597;28;20051;-67
2022/03/02 01:00:13;;;;;;;42.80;21.50;;;5.00;95.90;;;;;;5045338;28;20123;-67
2022/03/02 01:02:40;;;;;;;44.03;21.90;;;5.00;95.90;;;;;;5066967;28;20048;-67
2022/03/02 01:05:07;;;;;;;46.80;22.73;;;5.00;96.00;;;;;;5038359;28;20410;-67
2022/03/02 01:07:33;;;;;;;45.95;21.85;;;4.90;95.90;;;;;;5040792;28;20195;-67
2022/03/02 01:09:59;;;;;;;48.95;23.13;;;5.00;95.90;;;;;;5071841;28;20153;-67
2022/03/02 01:12:25;;;;;;;42.13;21.25;;;4.90;95.90;;;;;;5065034;28;20478;-67
2022/03/02 01:14:50;;;;;;;47.78;23.08;;;5.00;95.90;;;;;;5067814;28;20059;-66
2022/03/02 01:17:17;;;;;;;46.28;22.27;;;4.90;95.90;;;;;;5052696;28;20102;-67
2022/03/02 01:19:43;;;;;;;44.42;21.70;;;4.90;96.00;;;;;;5059343;28;20033;-67
2022/03/02 01:22:08;;;;;;;45.00;22.20;;;4.90;95.90;;;;;;5051709;28;20060;-67
2022/03/02 01:24:34;;;;;;;48.83;23.60;;;4.90;96.00;;;;;;5056100;28;20056;-67
2022/03/02 01:27:01;;;;;;;52.13;23.40;;;4.90;96.30;;;;;;5068101;28;20736;-67
2022/03/02 01:29:30;;;;;;;45.50;23.00;;;4.80;96.20;;;;;;5057897;28;20041;-67
2022/03/02 01:31:55;;;;;;;42.53;21.77;;;4.80;96.10;;;;;;5035891;28;20068;-67
2022/03/02 01:34:21;;;;;;;46.65;23.35;;;4.90;96.10;;;;;;5062613;28;20533;-67
2022/03/02 01:36:46;;;;;;;45.13;22.40;;;4.90;96.20;;;;;;5041927;28;20051;-67
2022/03/02 01:39:12;;;;;;;48.30;22.45;;;4.80;96.20;;;;;;5051169;28;20041;-67
2022/03/02 01:41:38;;;;;;;46.00;22.42;;;4.90;96.20;;;;;;5050999;28;20067;-67
2022/03/02 01:44:03;;;;;;;49.45;22.80;;;4.90;96.20;;;;;;5050477;28;20118;-67
2022/03/02 01:46:30;;;;;;;49.20;22.13;;;4.80;96.40;;;;;;5050877;28;20120;-68
2022/03/02 01:48:55;;;;;;;45.53;22.83;;;4.80;96.50;;;;;;5032621;28;20037;-68
2022/03/02 01:51:21;;;;;;;49.45;23.27;;;4.90;96.60;;;;;;5036965;28;20044;-67
2022/03/02 01:53:47;;;;;;;48.70;24.10;;;4.80;96.70;;;;;;5051577;28;20037;-67
2022/03/02 01:56:13;;;;;;;45.88;22.30;;;4.80;96.80;;;;;;5034690;28;20451;-67
2022/03/02 01:58:39;;;;;;;50.35;23.30;;;4.80;96.90;;;;;;5064436;28;20049;-67
2022/03/02 02:01:05;;;;;;;49.63;24.10;;;4.80;96.90;;;;;;5053711;28;20334;-67
2022/03/02 02:03:33;;;;;;;49.35;22.77;;;4.80;96.90;;;;;;5036015;28;20045;-67
2022/03/02 02:05:58;;;;;;;46.47;23.15;;;4.80;97.10;;;;;;5049752;28;20056;-67
2022/03/02 02:08:24;;;;;;;49.78;24.13;;;4.80;97.10;;;;;;5055848;28;20377;-67
2022/03/02 02:10:50;;;;;;;50.60;24.35;;;4.80;96.90;;;;;;5056873;28;20102;-67
2022/03/02 02:13:16;;;;;;;51.10;24.95;;;4.80;97.00;;;;;;5050521;28;20051;-67
2022/03/02 02:15:42;;;;;;;52.65;25.20;;;4.80;97.10;;;;;;5056557;28;20080;-67
2022/03/02 02:18:08;;;;;;;46.15;23.48;;;4.80;97.10;;;;;;5062042;28;20048;-67
2022/03/02 02:20:36;;;;;;;47.05;23.50;;;4.80;97.00;;;;;;5039487;28;20044;-67
2022/03/02 02:23:02;;;;;;;53.78;24.58;;;4.80;97.00;;;;;;5044844;28;20137;-67
2022/03/02 02:25:28;;;;;;;52.17;24.15;;;4.80;97.10;;;;;;5048653;28;20807;-67
2022/03/02 02:27:54;;;;;;;50.47;24.25;;;4.80;97.00;;;;;;5050419;28;20728;-67
2022/03/02 02:30:21;;;;;;;53.70;26.15;;;4.80;97.00;;;;;;5036202;28;20028;-67
2022/03/02 02:32:47;;;;;;;50.42;24.67;;;4.80;96.90;;;;;;5061720;28;20101;-68
2022/03/02 02:35:13;;;;;;;52.35;25.63;;;4.80;97.00;;;;;;5066836;28;20392;-67
2022/03/02 02:37:39;;;;;;;53.03;25.70;;;4.70;96.90;;;;;;5045099;28;20491;-67
2022/03/02 02:40:11;;;;;;;50.50;24.27;;;4.80;97.00;;;;;;5064284;28;20040;-67
2022/03/02 02:42:37;;;;;;;51.58;25.42;;;4.80;97.10;;;;;;5060426;28;20073;-68
2022/03/02 02:45:05;;;;;;;54.45;26.17;;;4.70;97.00;;;;;;5052272;28;20101;-67
2022/03/02 02:47:31;;;;;;;55.38;26.00;;;4.70;97.00;;;;;;5051595;28;20048;-67
2022/03/02 02:49:56;;;;;;;54.00;26.48;;;4.70;97.10;;;;;;5065002;28;20374;-67
2022/03/02 02:52:22;;;;;;;53.30;25.90;;;4.70;97.40;;;;;;5056835;28;20533;-68
2022/03/02 02:54:49;;;;;;;50.35;25.63;;;4.60;97.50;;;;;;5041777;28;20138;-67
2022/03/02 02:57:16;;;;;;;52.60;26.15;;;4.60;97.20;;;;;;5054325;28;20102;-67
2022/03/02 02:59:42;;;;;;;54.78;25.17;;;4.60;97.20;;;;;;5035709;28;20182;-67
2022/03/02 03:02:07;;;;;;;50.55;25.13;;;4.60;97.30;;;;;;5048660;28;20436;-68
2022/03/02 03:04:33;;;;;;;54.58;25.75;;;4.60;97.30;;;;;;5056458;28;20040;-67
2022/03/02 03:06:59;;;;;;;49.75;24.92;;;4.60;97.40;;;;;;5069747;28;20487;-67
2022/03/02 03:09:24;;;;;;;59.40;27.08;;;4.50;97.10;;;;;;5061500;28;20082;-67
2022/03/02 03:11:50;;;;;;;51.25;25.80;;;4.50;97.00;;;;;;5048764;28;20556;-67
2022/03/02 03:14:16;;;;;;;53.80;26.83;;;4.50;97.00;;;;;;5038198;28;20138;-67
2022/03/02 03:16:42;;;;;;;52.50;25.90;;;4.50;97.00;;;;;;5051726;28;20052;-67
2022/03/02 03:19:08;;;;;;;52.38;26.00;;;4.50;97.10;;;;;;5037876;28;20148;-67
2022/03/02 03:21:34;;;;;;;54.38;25.63;;;4.50;97.30;;;;;;5048943;28;20124;-67
2022/03/02 03:24:00;;;;;;;52.03;24.80;;;4.40;97.10;;;;;;5074762;28;20072;-67
2022/03/02 03:26:27;;;;;;;53.88;25.95;;;4.40;97.10;;;;;;5057824;28;20136;-67
2022/03/02 03:28:52;;;;;;;51.55;26.27;;;4.40;97.20;;;;;;5055449;28;20040;-68
2022/03/02 03:31:18;;;;;;;54.60;25.38;;;4.40;97.30;;;;;;5033331;28;20354;-68
2022/03/02 03:33:44;;;;;;;52.28;25.70;;;4.40;97.40;;;;;;5048952;28;20041;-67
2022/03/02 03:36:10;;;;;;;54.47;26.50;;;4.40;97.40;;;;;;5059839;28;20036;-67
2022/03/02 03:38:35;;;;;;;55.13;27.02;;;4.40;97.40;;;;;;5055535;28;20135;-67
2022/03/02 03:41:01;;;;;;;52.70;25.95;;;4.40;97.60;;;;;;5049672;28;20137;-67
2022/03/02 03:43:27;;;;;;;56.92;26.73;;;4.40;97.50;;;;;;5064927;28;20132;-67
2022/03/02 03:45:52;;;;;;;55.90;26.60;;;4.40;97.70;;;;;;5059829;28;20037;-67
2022/03/02 03:48:18;;;;;;;54.17;26.50;;;4.40;97.70;;;;;;5032972;28;20040;-67
2022/03/02 03:50:44;;;;;;;53.67;26.23;;;4.40;97.70;;;;;;5062990;28;20047;-67
2022/03/02 03:53:11;;;;;;;55.67;25.65;;;4.40;97.70;;;;;;5056422;28;20128;-67
2022/03/02 03:55:38;;;;;;;60.15;26.48;;;4.50;97.80;;;;;;5059545;28;20419;-67
2022/03/02 03:58:05;;;;;;;53.78;25.75;;;4.40;97.70;;;;;;5055447;28;20515;-67
2022/03/02 04:00:31;;;;;;;55.33;25.30;;;4.40;97.70;;;;;;5049023;28;20033;-67
2022/03/02 04:02:56;;;;;;;50.00;24.73;;;4.40;97.60;;;;;;5054706;28;20495;-67
2022/03/02 04:05:22;;;;;;;53.17;25.40;;;4.40;97.60;;;;;;5052232;28;20044;-67
2022/03/02 04:07:48;;;;;;;54.83;25.08;;;4.40;97.60;;;;;;5047745;28;20032;-67
2022/03/02 04:10:15;;;;;;;54.38;26.40;;;4.40;97.50;;;;;;5047501;28;20477;-67
2022/03/02 04:12:41;;;;;;;57.97;25.90;;;4.40;97.50;;;;;;5060038;28;20044;-68
2022/03/02 04:15:07;;;;;;;55.42;25.08;;;4.30;97.60;;;;;;5032414;28;20258;-67
2022/03/02 04:17:33;;;;;;;52.22;26.50;;;4.30;97.70;;;;;;5052103;28;20207;-67
2022/03/02 04:19:59;;;;;;;55.15;25.05;;;4.20;97.80;;;;;;5057096;28;20517;-67
2022/03/02 04:22:24;;;;;;;52.92;26.23;;;4.20;97.70;;;;;;5056235;28;20174;-67
2022/03/02 04:24:50;;;;;;;55.42;26.15;;;4.20;97.80;;;;;;5035326;28;20478;-67
2022/03/02 04:27:15;;;;;;;58.30;27.25;;;4.20;97.90;;;;;;5048629;28;20050;-67
2022/03/02 04:29:41;;;;;;;55.45;27.13;;;4.10;97.90;;;;;;5036618;28;20055;-67
2022/03/02 04:32:07;;;;;;;60.00;26.92;;;4.10;98.20;;;;;;5051595;28;20064;-67
2022/03/02 04:34:33;;;;;;;51.58;25.70;;;4.00;98.00;;;;;;5063859;28;20362;-67
2022/03/02 04:36:58;;;;;;;59.03;27.20;;;4.00;98.00;;;;;;5043127;28;20055;-67
2022/03/02 04:39:24;;;;;;;53.80;25.73;;;3.90;98.20;;;;;;5056209;28;20068;-67
2022/03/02 04:41:50;;;;;;;52.22;24.83;;;3.90;98.10;;;;;;5046847;28;20116;-67
2022/03/02 04:44:15;;;;;;;59.63;26.98;;;3.80;98.20;;;;;;5050820;28;20025;-67
2022/03/02 04:46:41;;;;;;;55.15;26.83;;;3.70;98.40;;;;;;5049718;28;20049;-67
2022/03/02 04:49:13;;;;;;;56.53;25.25;;;3.60;98.40;;;;;;5060953;28;20433;-67
2022/03/02 04:51:42;;;;;;;58.17;26.90;;;3.50;98.40;;;;;;5044174;28;20094;-67
2022/03/02 04:54:08;;;;;;;48.45;24.77;;;3.40;98.40;;;;;;5064991;28;20501;-67
2022/03/02 04:56:34;;;;;;;54.45;25.48;;;3.30;98.70;;;;;;5049418;28;20051;-67
2022/03/02 04:59:03;;;;;;;49.92;23.88;;;3.20;98.70;;;;;;5047545;28;20044;-67
2022/03/02 05:01:30;;;;;;;50.80;25.48;;;3.10;98.70;;;;;;5048767;28;20052;-67
2022/03/02 05:03:56;;;;;;;53.28;24.73;;;3.00;99.20;;;;;;5051870;28;20036;-67
2022/03/02 05:06:21;;;;;;;50.60;23.80;;;2.90;98.90;;;;;;5047516;28;20048;-68
2022/03/02 05:08:47;;;;;;;51.22;25.15;;;2.80;98.80;;;;;;5050243;28;20044;-67
2022/03/02 05:11:13;;;;;;;58.35;25.60;;;2.70;99.10;;;;;;5044871;28;20076;-67
2022/03/02 05:13:38;;;;;;;54.47;25.02;;;2.60;99.10;;;;;;5031932;28;20068;-67
2022/03/02 05:16:04;;;;;;;55.67;24.52;;;2.60;99.30;;;;;;5052019;28;20080;-67
2022/03/02 05:18:29;;;;;;;50.65;23.40;;;2.50;99.40;;;;;;5050195;28;20029;-67
2022/03/02 05:20:55;;;;;;;52.63;24.85;;;2.40;99.40;;;;;;5047785;28;20448;-67
2022/03/02 05:23:21;;;;;;;58.00;25.63;;;2.30;99.50;;;;;;5040951;28;20043;-67
2022/03/02 05:25:46;;;;;;;51.13;24.15;;;2.20;99.80;;;;;;5064998;28;20337;-67
2022/03/02 05:28:12;;;;;;;53.38;24.17;;;2.10;99.70;;;;;;5062905;28;20052;-67
2022/03/02 05:30:37;;;;;;;54.53;23.88;;;2.10;99.90;;;;;;5056989;28;20037;-67
2022/03/02 05:33:03;;;;;;;55.17;25.08;;;2.00;99.90;;;;;;5051633;28;20041;-67
2022/03/02 05:35:29;;;;;;;55.03;25.73;;;2.00;99.90;;;;;;5033470;28;20048;-67
2022/03/02 05:37:55;;;;;;;54.92;25.00;;;1.90;99.90;;;;;;5051476;28;20071;-67
2022/03/02 05:40:21;;;;;;;48.22;23.95;;;1.80;99.90;;;;;;5062981;28;20087;-68
2022/03/02 05:42:46;;;;;;;57.08;25.42;;;1.80;99.90;;;;;;5061243;28;20474;-67
2022/03/02 05:45:12;;;;;;;57.47;24.67;;;1.70;99.90;;;;;;5057673;28;20155;-67
2022/03/02 05:47:39;;;;;;;56.97;25.67;;;1.70;99.90;;;;;;5063964;28;20037;-67
2022/03/02 05:50:07;;;;;;;51.50;25.42;;;1.70;99.90;;;;;;5063695;28;20108;-67
2022/03/02 05:52:33;;;;;;;55.17;24.77;;;1.60;99.90;;;;;;5045755;28;20084;-67
2022/03/02 05:54:58;;;;;;;57.60;24.95;;;1.50;99.90;;;;;;5057672;28;20076;-67
2022/03/02 05:57:24;;;;;;;57.97;27.20;;;1.50;99.90;;;;;;5066022;28;20037;-67
2022/03/02 05:59:49;;;;;;;57.55;25.00;;;1.50;99.90;;;;;;5054498;28;20044;-67
2022/03/02 06:02:15;;;;;;;54.90;24.63;;;1.40;99.90;;;;;;5058829;28;20040;-67
2022/03/02 06:04:41;;;;;;;57.58;24.67;;;1.40;99.90;;;;;;5061381;28;20119;-66
2022/03/02 06:07:06;;;;;;;53.20;26.05;;;1.40;99.90;;;;;;5035933;28;20749;-66
2022/03/02 06:09:32;;;;;;;60.40;26.17;;;1.40;99.90;;;;;;5065515;28;20140;-67
2022/03/02 06:11:58;;;;;;;57.55;24.98;;;1.40;99.90;;;;;;5033329;28;20072;-67
2022/03/02 06:14:24;;;;;;;54.55;23.02;;;1.40;99.90;;;;;;5040226;28;20107;-67
2022/03/02 06:16:51;;;;;;;54.45;23.65;;;1.40;99.90;;;;;;5055241;28;20048;-67
2022/03/02 06:19:17;;;;;;;55.28;24.60;;;1.40;99.90;;;;;;5048062;28;20052;-67
2022/03/02 06:21:46;;;;;;;54.97;24.35;;;1.30;99.90;;;;;;5051882;28;20029;-67
2022/03/02 06:24:14;;;;;;;62.08;26.00;;;1.30;99.90;;;;;;5036752;28;20101;-67
2022/03/02 06:26:40;;;;;;;51.55;23.55;;;1.30;99.90;;;;;;5040958;28;20068;-67
2022/03/02 06:29:06;;;;;;;54.60;24.42;;;1.30;99.90;;;;;;5040299;28;20342;-67
2022/03/02 06:31:33;;;;;;;58.90;24.85;;;1.20;99.90;;;;;;5036720;28;20041;-67
2022/03/02 06:34:00;;;;;;;57.10;26.42;;;1.20;99.90;;;;;;5051812;28;20037;-67
2022/03/02 06:36:25;;;;;;;58.13;25.73;;;1.30;99.90;;;;;;5054131;28;20481;-67
2022/03/02 06:38:51;;;;;;;54.17;25.42;;;1.30;99.90;;;;;;5066030;28;20039;-68
2022/03/02 06:41:30;;;;;;;55.70;25.00;;;1.30;99.90;;;;;;5043527;28;20043;-67
2022/03/02 06:44:06;;;;;;;58.78;25.08;;;1.20;99.90;;;;;;5043931;28;20474;-67
2022/03/02 06:46:40;;;;;;;55.75;24.42;;;1.20;99.90;;;;;;5065840;28;20037;-67
2022/03/02 06:49:38;;;;;;;54.90;25.10;;;1.20;99.90;;;;;;5031878;28;20543;-67
2022/03/02 06:52:04;;;;;;;50.90;24.10;;;1.20;99.90;;;;;;5031874;28;20056;-67
2022/03/02 06:54:32;;;;;;;56.08;25.35;;;1.30;99.90;;;;;;5061486;28;20041;-66
2022/03/02 06:57:01;;;;;;;56.83;25.63;;;1.30;99.90;;;;;;5045345;28;20049;-67
2022/03/02 06:59:52;;;;;;;59.80;25.92;;;1.40;99.90;;;;;;5034075;28;20116;-67
2022/03/02 07:02:28;;;;;;;57.22;24.55;;;1.50;99.90;;;;;;5062223;28;20052;-67
2022/03/02 07:04:55;;;;;;;57.30;26.02;;;1.60;99.90;;;;;;5050323;28;20039;-67
2022/03/02 07:07:21;;;;;;;56.63;25.33;;;1.70;99.90;;;;;;5051077;28;20037;-67
2022/03/02 07:09:47;;;;;;;53.45;25.33;;;1.80;99.90;;;;;;5051215;28;20277;-67
2022/03/02 07:12:12;;;;;;;57.70;25.65;;;1.90;99.90;;;;;;5045850;28;20047;-67
2022/03/02 07:14:38;;;;;;;52.08;24.70;;;2.00;99.90;;;;;;5049725;28;20057;-68
2022/03/02 07:17:05;;;;;;;52.13;25.80;;;2.20;99.90;;;;;;5050387;28;20041;-67
2022/03/02 07:19:31;;;;;;;56.92;26.33;;;2.40;99.90;;;;;;5048839;28;20083;-67
2022/03/02 07:22:00;;;;;;;54.13;24.67;;;2.60;99.90;;;;;;5031648;28;20128;-67
2022/03/02 07:24:31;;;;;;;45.22;23.63;;;2.70;99.90;;;;;;5033369;28;20037;-67
2022/03/02 07:26:58;;;;;;;51.00;25.50;;;3.00;99.90;;;;;;5046666;28;20037;-67
2022/03/02 07:29:26;;;;;;;50.50;24.80;;;3.30;99.90;;;;;;5058372;28;20055;-67
2022/03/02 07:31:56;;;;;;;47.75;24.35;;;3.60;99.90;;;;;;5035095;28;20038;-68
2022/03/02 07:34:24;;;;;;;52.42;25.05;;;3.90;99.90;;;;;;5049004;28;20370;-67
2022/03/02 07:36:50;;;;;;;51.90;25.83;;;4.10;99.90;;;;;;5047080;28;20511;-67
2022/03/02 07:39:17;;;;;;;48.83;23.88;;;4.30;99.90;;;;;;5038168;28;20040;-67
2022/03/02 07:41:43;;;;;;;45.50;23.70;;;4.60;99.90;;;;;;5054806;28;20430;-67
2022/03/02 07:44:08;;;;;;;43.78;22.67;;;4.80;99.90;;;;;;5066194;28;20048;-67
2022/03/02 07:46:34;;;;;;;45.80;23.42;;;5.10;99.90;;;;;;5064942;28;20032;-68
2022/03/02 07:49:02;;;;;;;46.58;22.13;;;5.30;99.90;;;;;;5050196;28;20078;-68
2022/03/02 07:51:28;;;;;;;41.70;22.40;;;5.60;99.90;;;;;;5056277;28;20041;-68
2022/03/02 07:54:03;;;;;;;41.92;22.63;;;5.70;99.40;;;;;;5048131;28;20032;-68
2022/03/02 07:56:30;;;;;;;41.00;22.52;;;5.70;96.80;;;;;;5057577;28;20421;-67
2022/03/02 07:59:01;;;;;;;37.65;22.23;;;5.70;98.10;;;;;;5058661;28;20040;-69
2022/03/02 08:01:27;;;;;;;42.58;22.73;;;5.70;97.20;;;;;;5065556;28;20045;-68
2022/03/02 08:03:56;;;;;;;44.08;24.00;;;5.70;97.80;;;;;;5059415;28;20041;-67
2022/03/02 08:06:23;;;;;;;42.55;22.55;;;5.70;96.90;;;;;;5057143;28;20074;-68
2022/03/02 08:08:50;;;;;;;40.42;22.17;;;5.60;96.10;;;;;;5050737;28;20129;-67
2022/03/02 08:11:17;;;;;;;37.13;21.00;;;5.40;96.00;;;;;;5057978;28;20125;-67
2022/03/02 08:13:43;;;;;;;39.75;21.05;;;5.40;95.30;;;;;;5068010;28;20057;-67
2022/03/02 08:16:08;;;;;;;38.65;21.08;;;5.40;94.10;;;;;;5066313;28;20572;-66
2022/03/02 08:18:34;;;;;;;42.85;20.88;;;5.40;93.10;;;;;;5039156;28;20043;-67
2022/03/02 08:21:02;;;;;;;41.33;21.58;;;5.40;93.40;;;;;;5048210;28;20072;-66
2022/03/02 08:23:36;;;;;;;38.58;20.55;;;5.40;93.10;;;;;;5042525;28;20040;-66
2022/03/02 08:26:02;;;;;;;39.78;21.10;;;5.50;92.80;;;;;;5060040;28;20110;-67
2022/03/02 08:28:35;;;;;;;41.05;20.70;;;5.60;93.10;;;;;;5047324;28;20103;-67
2022/03/02 08:31:02;;;;;;;40.70;20.80;;;5.70;93.00;;;;;;5032804;28;20041;-67
2022/03/02 08:33:34;;;;;;;40.05;22.20;;;5.70;92.80;;;;;;5056337;28;20045;-67
2022/03/02 08:36:00;;;;;;;37.88;20.15;;;5.70;92.20;;;;;;5047309;28;20748;-68
2022/03/02 08:38:26;;;;;;;39.40;20.92;;;5.80;92.40;;;;;;5033294;28;20040;-67
2022/03/02 08:40:52;;;;;;;37.85;20.27;;;5.90;92.30;;;;;;5043995;28;20553;-67
2022/03/02 08:43:18;;;;;;;42.20;22.40;;;6.00;92.20;;;;;;5049115;28;20068;-68
2022/03/02 08:45:51;;;;;;;37.83;19.50;;;6.00;92.10;;;;;;5040193;28;20037;-68
2022/03/02 08:48:18;;;;;;;40.15;20.50;;;6.10;91.90;;;;;;5043528;28;20033;-68
2022/03/02 08:50:45;;;;;;;41.58;22.20;;;6.20;91.80;;;;;;5030206;28;20147;-68
2022/03/02 08:53:16;;;;;;;41.55;20.95;;;6.20;91.70;;;;;;5048185;28;20048;-68
2022/03/02 08:55:43;;;;;;;41.97;21.60;;;6.30;91.50;;;;;;5054860;28;20040;-68
2022/03/02 08:58:10;;;;;;;36.08;20.98;;;6.30;91.30;;;;;;5056746;28;20047;-68
2022/03/02 09:00:36;;;;;;;39.80;20.80;;;6.20;91.20;;;;;;5060569;28;20123;-69
2022/03/02 09:03:03;;;;;;;41.10;21.67;;;6.40;91.30;;;;;;5053740;28;20045;-68
2022/03/02 09:05:29;;;;;;;42.78;21.00;;;6.30;90.60;;;;;;5052293;28;20039;-68
2022/03/02 09:07:56;;;;;;;38.60;19.88;;;6.30;90.70;;;;;;5052110;28;20397;-68
2022/03/02 09:10:23;;;;;;;41.92;20.45;;;6.30;90.60;;;;;;5055346;28;20047;-66
2022/03/02 09:12:52;;;;;;;39.03;20.30;;;6.40;90.40;;;;;;5052413;28;20419;-67
2022/03/02 09:15:18;;;;;;;40.00;20.58;;;6.40;90.30;;;;;;5058333;28;20072;-67
2022/03/02 09:17:44;;;;;;;38.78;21.33;;;6.60;90.20;;;;;;5055251;28;20036;-68
2022/03/02 09:20:10;;;;;;;36.08;19.85;;;6.70;90.20;;;;;;5055547;28;20131;-68
2022/03/02 09:22:38;;;;;;;39.75;20.95;;;6.80;90.10;;;;;;5054546;28;20063;-68
2022/03/02 09:25:08;;;;;;;43.72;21.42;;;7.00;90.00;;;;;;5052784;28;20068;-68
2022/03/02 09:27:34;;;;;;;39.00;20.05;;;7.20;90.00;;;;;;5063270;28;20033;-67
2022/03/02 09:30:04;;;;;;;44.88;20.90;;;7.20;89.70;;;;;;5066797;28;20044;-67
2022/03/02 09:32:31;;;;;;;46.22;22.30;;;7.30;89.30;;;;;;5057117;28;20078;-67
2022/03/02 09:34:59;;;;;;;41.55;22.58;;;7.30;89.10;;;;;;5063075;28;20048;-68
2022/03/02 09:37:27;;;;;;;40.85;21.45;;;7.20;89.20;;;;;;5066252;28;20115;-67
2022/03/02 09:39:53;;;;;;;41.15;22.15;;;7.40;88.80;;;;;;5037775;28;20094;-67
2022/03/02 09:42:25;;;;;;;39.88;21.33;;;7.30;89.10;;;;;;5059297;28;20055;-68
2022/03/02 09:45:06;;;;;;;38.38;20.88;;;7.50;88.10;;;;;;5055520;28;20401;-68
2022/03/02 09:47:40;;;;;;;;;;;7.40;88.40;;;;;;5036536;28;20072;-68
2022/03/02 09:50:10;;;;;;;40.60;20.95;;;7.60;88.20;;;;;;5050283;28;19920;-68
2022/03/02 09:52:38;;;;;;;43.08;22.75;;;7.50;88.10;;;;;;5051386;28;20041;-68
2022/03/02 09:55:09;;;;;;;38.40;21.10;;;7.40;87.50;;;;;;5065079;28;22126;-68
2022/03/02 09:57:42;;;;;;;39.50;21.02;;;7.60;87.70;;;;;;5050381;28;20106;-68
2022/03/02 10:00:09;;;;;;;45.00;22.48;;;7.50;87.70;;;;;;5057571;28;20044;-68
2022/03/02 10:02:41;;;;;;;38.90;22.05;;;7.50;87.20;;;;;;5060556;28;20036;-67
2022/03/02 10:05:16;;;;;;;38.83;21.95;;;7.60;86.40;;;;;;5036269;28;20110;-68
2022/03/02 10:07:51;;;;;;;41.13;21.65;;;7.70;86.80;;;;;;5069322;28;20093;-67
2022/03/02 10:10:22;;;;;;;40.00;20.48;;;7.70;86.00;;;;;;5070294;28;20412;-67
2022/03/02 10:12:48;;;;;;;35.13;19.02;;;7.70;86.00;;;;;;5055283;28;20049;-67
2022/03/02 10:15:14;;;;;;;31.88;16.85;;;7.70;83.60;;;;;;5068760;28;20053;-67
2022/03/02 10:17:42;;;;;;;34.88;17.48;;;7.80;79.00;;;;;;5051461;28;20128;-68
2022/03/02 10:20:14;;;;;;;35.28;18.40;;;7.80;80.90;;;;;;5065741;28;20052;-67
2022/03/02 10:22:40;;;;;;;31.05;16.75;;;7.90;80.00;;;;;;5032687;28;20048;-67
2022/03/02 10:25:11;;;;;;;31.48;17.50;;;7.90;79.20;;;;;;5034321;28;20033;-67
2022/03/02 10:27:50;;;;;;;35.20;17.63;;;8.00;77.70;;;;;;5070520;28;20119;-67
2022/03/02 10:30:16;;;;;;;30.50;16.65;;;8.00;76.40;;;;;;5063840;28;20068;-68
2022/03/02 10:32:43;;;;;;;35.67;17.83;;;8.00;77.30;;;;;;5060364;28;20149;-68
2022/03/02 10:35:13;;;;;;;35.17;17.75;;;8.20;76.70;;;;;;5049176;28;20056;-68
2022/03/02 10:38:03;;;;;;;30.58;17.13;;;8.20;76.90;;;;;;5032909;28;20495;-68
2022/03/02 10:40:31;;;;;;;;;;;8.30;75.20;;;;;;5058088;28;20132;-66
2022/03/02 10:43:04;;;;;;;35.28;17.88;;;8.20;73.20;;;;;;5048979;28;19924;-67
2022/03/02 10:45:46;;;;;;;34.65;18.20;;;8.10;75.00;;;;;;5050004;28;20036;-67
2022/03/02 10:48:21;;;;;;;36.88;18.20;;;8.20;76.60;;;;;;5066802;28;20040;-67
2022/03/02 10:50:49;;;;;;;32.53;16.95;;;8.20;75.00;;;;;;5067878;28;20768;-67
2022/03/02 10:53:18;;;;;;;34.95;18.13;;;8.30;74.60;;;;;;5070420;28;20052;-67
2022/03/02 10:55:45;;;;;;;37.92;17.98;;;8.40;75.30;;;;;;5056689;28;20040;-66
2022/03/02 10:58:15;;;;;;;35.95;18.17;;;8.50;74.50;;;;;;5048663;28;20598;-67
2022/03/02 11:00:41;;;;;;;33.77;16.90;;;8.60;74.50;;;;;;5060068;28;20048;-67
2022/03/02 11:03:08;;;;;;;33.60;17.35;;;8.50;72.90;;;;;;5060371;28;20045;-68
2022/03/02 11:05:34;;;;;;;37.75;18.52;;;8.60;73.50;;;;;;5061245;28;20167;-67
2022/03/02 11:08:00;;;;;;;32.47;17.73;;;8.50;73.20;;;;;;5050198;28;20033;-68
2022/03/02 11:10:33;;;;;;;31.92;17.67;;;8.40;73.10;;;;;;5067618;28;20060;-67
2022/03/02 11:13:02;;;;;;;33.63;17.85;;;8.50;73.50;;;;;;5052942;28;20033;-67
2022/03/02 11:15:56;;;;;;;32.92;16.90;;;8.60;73.40;;;;;;5034393;28;20533;-68
2022/03/02 11:18:54;;;;;;;33.05;17.55;;;8.50;71.80;;;;;;5049251;28;20102;-68
2022/03/02 11:21:28;;;;;;;34.28;17.67;;;8.60;71.90;;;;;;5025421;28;20111;-68
2022/03/02 11:23:57;;;;;;;31.13;17.77;;;8.60;73.00;;;;;;5031933;28;20590;-68
2022/03/02 11:26:29;;;;;;;34.72;18.38;;;8.50;72.60;;;;;;5047896;28;20028;-68
2022/03/02 11:28:57;;;;;;;32.55;17.00;;;8.70;73.70;;;;;;5048136;28;20037;-68
2022/03/02 11:31:31;;;;;;;32.72;17.55;;;8.80;73.10;;;;;;5040424;28;20073;-67
2022/03/02 11:34:11;;;;;;;31.95;15.52;;;8.90;72.00;;;;;;5047565;28;20040;-67
2022/03/02 11:36:38;;;;;;;33.70;18.23;;;8.90;70.50;;;;;;5062858;28;20075;-68
2022/03/02 11:39:06;;;;;;;31.20;16.25;;;8.90;72.90;;;;;;5047392;28;20041;-68
2022/03/02 11:41:38;;;;;;;35.85;18.77;;;8.80;70.00;;;;;;5049325;28;20037;-68
2022/03/02 11:44:06;;;;;;;30.90;17.65;;;8.90;71.10;;;;;;5046019;28;20064;-68
2022/03/02 11:46:31;;;;;;;35.97;17.17;;;9.00;70.90;;;;;;5056690;28;20048;-68
2022/03/02 11:48:58;;;;;;;34.70;17.08;;;8.90;69.00;;;;;;5058716;28;20084;-67
2022/03/02 11:51:25;;;;;;;30.60;17.45;;;8.90;70.20;;;;;;5061029;28;20111;-68
2022/03/02 11:53:52;;;;;;;32.55;15.70;;;9.00;70.70;;;;;;5066853;28;20101;-69
2022/03/02 11:56:21;;;;;;;30.67;16.58;;;9.10;68.20;;;;;;5035033;28;20044;-68
2022/03/02 11:59:01;;;;;;;29.35;16.27;;;9.10;68.40;;;;;;5048092;28;20041;-68
2022/03/02 12:01:41;;;;;;;32.97;16.80;;;9.10;68.00;;;;;;5036988;28;20029;-68
2022/03/02 12:04:08;;;;;;;32.03;15.95;;;9.10;67.70;;;;;;5046014;28;20044;-68
2022/03/02 12:07:04;;;;;;;27.30;14.63;;;9.20;67.70;;;;;;5048799;28;20040;-67
2022/03/02 12:09:37;;;;;;;30.35;15.50;;;9.20;66.10;;;;;;5057075;28;20102;-67
2022/03/02 12:12:22;;;;;;;28.10;14.55;;;9.20;67.40;;;;;;5032057;28;20118;-68
2022/03/02 12:15:01;;;;;;;31.70;16.60;;;9.30;65.10;;;;;;5047241;28;20071;-68
2022/03/02 12:17:30;;;;;;;27.98;14.60;;;9.30;66.50;;;;;;5032424;28;20361;-67
2022/03/02 12:20:03;;;;;;;30.90;15.77;;;9.40;66.20;;;;;;5059379;28;20060;-68
2022/03/02 12:22:40;;;;;;;28.98;15.23;;;9.40;64.80;;;;;;5052018;28;20029;-69
2022/03/02 12:25:12;;;;;;;28.77;14.13;;;9.40;65.00;;;;;;5047749;28;20053;-69
2022/03/02 12:27:38;;;;;;;27.90;15.63;;;9.40;63.70;;;;;;5050421;28;20052;-68
2022/03/02 12:30:10;;;;;;;28.48;14.85;;;9.50;64.80;;;;;;5046945;28;20468;-67
2022/03/02 12:32:42;;;;;;;27.17;15.05;;;9.50;63.90;;;;;;5065859;28;20056;-68
2022/03/02 12:35:10;;;;;;;28.50;14.68;;;9.50;62.00;;;;;;5057112;28;20037;-68
2022/03/02 12:37:37;;;;;;;30.90;15.23;;;9.40;61.90;;;;;;5045557;28;20162;-68
2022/03/02 12:40:06;;;;;;;28.98;15.98;;;9.50;62.70;;;;;;5034540;28;20046;-68
2022/03/02 12:42:32;;;;;;;27.10;14.93;;;9.60;63.20;;;;;;5037111;28;20101;-69